KPUB/PUB METAR and TAF weather

Enter ICAO airport designator
Station Type Date Time Source
KPUB METAR 2020/01/17 14:08 UTC NOAA

KPUB 171408Z 00000KT 10SM BKN006 M08/M11 A2982 RMK AO2 T10781106


Station Type Date Time Source
KPUB Decoded METAR 2020/01/17 14:08 UTC NOAA

PUEBLO MEMORIAL AIRPORT, CO, United States (KPUB) 38-17N 104-30W 1420M
Jan 17, 2020 - 09:08 AM EST / 2020.01.17 1408 UTC
Wind: Calm:0
Visibility: 10 mile(s):0
Sky conditions: mostly cloudy
Temperature: 18.0 F (-7.8 C)
Dew Point: 12.9 F (-10.6 C)
Relative Humidity: 80%
Pressure (altimeter): 29.82 in. Hg (1009 hPa)
ob: KPUB 171408Z 00000KT 10SM BKN006 M08/M11 A2982 RMK AO2 T10781106
cycle: 14

Station Type Date Time Source
KPUB TAF 2020/01/17 14:16 UTC NOAA

TAF
AMD KPUB 171414Z 1714/1812 33005KT P6SM SCT006 SCT200
TEMPO 1714/1715 BKN006
FM171700 25020G30KT P6SM SKC
FM172100 30025G50KT P6SM SKC
TEMPO 1721/1724 3SM BLDU
FM180200 31020G35KT P6SM SKC
FM180500 31015KT P6SM SKC
FM180800 VRB04KT P6SM SKC

Example: see airport list